PHKO METAR and TAF weather

Enter ICAO airport designator
Station Type Date Time Source
PHKO METAR 2020/11/27 13:53 UTC NOAA

PHKO 271353Z AUTO 03013KT 10SM CLR 24/11 A2995 RMK AO2 SLP141 T02440111 TSNO


Station Type Date Time Source
PHKO Decoded METAR 2020/11/27 13:53 UTC NOAA

KONA INTERNATIONAL AIRPORT, HI, United States (PHKO) 19-44N 156-03W 27M
Nov 27, 2020 - 08:53 AM EST / 2020.11.27 1353 UTC
Wind: from the NNE (030 degrees) at 15 MPH (13 KT):0
Visibility: 10 mile(s):0
Sky conditions: clear
Temperature: 75.9 F (24.4 C)
Dew Point: 52.0 F (11.1 C)
Relative Humidity: 43%
Pressure (altimeter): 29.95 in. Hg (1014 hPa)
ob: PHKO 271353Z AUTO 03013KT 10SM CLR 24/11 A2995 RMK AO2 SLP141 T02440111 TSNO
cycle: 14

Station Type Date Time Source
PHKO TAF 2020/11/27 12:22 UTC NOAA

TAF PHKO 271120Z 2712/2812 VRB05KT P6SM FEW025 FEW050
FM271800 23009KT P6SM SCT030 SCT050
FM280600 VRB05KT P6SM VCSH SCT025 BKN050

Example: see airport list